Pagina principale
METAR-TAF:

METAR-TAF

Aeroporti :

Sabadell, Spagna

latitudine: 41-31N, longitudine: 002-06E, altezza: 250 m

Osservazione

Il bollettino è stato emesso 16 minuti fa, alle 18:30 UTC
Vento 6 kt da ovest
Temperature 10°C
Umidità 71%
Pressione 1007 hPa
Visibilità 10 km o più

METAR: LELL 211830Z AUTO 26006KT 9999 NCD 10/05 Q1007

Ora: 19:46 (18:46 UTC)

Previsione

Il bollettino è stato emesso 1 ora e 19 minuti fa, alle 17:27 UTC
Previsione valida dal 21 alle 17 UTC al 22 alle 15 UTC
Vento 2 kt da direzioni variabili
Visibilità 10 km o più
Poco nuvoloso ad un'altezza di 4000 ft
Probabilità 40% :
Temporaneamente
dal 22 alle 09 UTC al 22 alle 12 UTC
Visibilità: 4000 m
Poco nuvoloso ad un'altezza di 3000 ft, Cumulo congesto.
pioggia
Evoluzione graduale
dal 22 alle 14 UTC al 22 alle 15 UTC
Vento 10 kt da sud

TAF: LELL 211727Z 2117/2215 VRB02KT 9999 FEW040 TX15/2213Z TN05/2207Z PROB40 TEMPO 2209/2212 4000 RA FEW030TCU BECMG 2214/2215 18010KT

Osservazioni e previsioni meteorologiche di più di 4000 aeroporti (messaggi METAR e TAF).

Le stazioni disponibili sono rappresentate dai dischi gialli e rossi sulla carta.

Puntare il mouse per vedere il nome della stazione.

Clicca sopra per visualizzare le osservazioni e previsioni meteorologiche.

Per cambiare la mappa : fare clic sui pulsanti verdi con una croce nera per ingrandire, il pulsante verde con un trattino per diminuire, o sulla freccia verde per le mappe adiacenti.


METAR-TAF: